Time;durP1;ratioP1;P1;durP2;ratioP2;P2;SDS_P1;SDS_P2;PMS_P1;PMS_P2;Temp;Humidity;BMP_temperature;BMP_pressure;BME280_temperature;BME280_humidity;BME280_pressure;Samples;Min_cycle;Max_cycle;Signal;HPM_P1;HPM_P2
2023/10/07 00:01:45;;;;;;;7.10;5.63;;;12.20;99.90;;;;;;5015879;28;20503;-72
2023/10/07 00:04:13;;;;;;;5.90;5.20;;;12.20;99.90;;;;;;5016602;28;20413;-71
2023/10/07 00:06:39;;;;;;;9.50;5.40;;;12.10;99.90;;;;;;5016321;28;20450;-71
2023/10/07 00:09:10;;;;;;;7.97;5.37;;;12.10;99.90;;;;;;5016244;28;20522;-71
2023/10/07 00:11:36;;;;;;;7.23;4.77;;;12.10;99.90;;;;;;5016693;28;20874;-71
2023/10/07 00:14:02;;;;;;;7.13;5.00;;;12.00;99.90;;;;;;5016267;28;20438;-72
2023/10/07 00:16:28;;;;;;;8.60;5.30;;;12.00;99.90;;;;;;5016071;28;20411;-72
2023/10/07 00:18:54;;;;;;;8.97;6.03;;;12.10;99.90;;;;;;5014905;28;20419;-72
2023/10/07 00:21:52;;;;;;;6.60;4.37;;;12.00;99.90;;;;;;5016099;28;20176;-72
2023/10/07 00:24:16;;;;;;;7.63;5.53;;;12.10;99.90;;;;;;5015904;28;20429;-71
2023/10/07 00:26:43;;;;;;;8.10;5.17;;;12.00;99.90;;;;;;5015795;28;20971;-71
2023/10/07 00:29:12;;;;;;;8.10;5.10;;;11.80;99.90;;;;;;5015928;28;20454;-71
2023/10/07 00:31:40;;;;;;;9.83;5.40;;;11.80;99.90;;;;;;5015880;28;20498;-72
2023/10/07 00:34:14;;;;;;;7.80;5.70;;;11.80;99.90;;;;;;5016327;28;20897;-72
2023/10/07 00:39:07;;;;;;;7.30;5.43;;;11.80;99.90;;;;;;5015846;28;20413;-71
2023/10/07 00:41:45;;;;;;;6.37;4.57;;;11.80;99.90;;;;;;5015541;28;20177;-72
2023/10/07 00:44:23;;;;;;;8.47;5.73;;;11.60;99.90;;;;;;5015848;28;20452;-72
2023/10/07 00:49:42;;;;;;;7.23;4.67;;;11.50;99.90;;;;;;5015603;28;20472;-72
2023/10/07 00:52:14;;;;;;;7.67;5.50;;;11.60;99.90;;;;;;5015856;28;20743;-72
2023/10/07 00:59:59;;;;;;;6.10;4.53;;;11.60;99.90;;;;;;5015771;28;20387;-72
2023/10/07 01:02:31;;;;;;;7.50;5.27;;;11.60;99.90;;;;;;5015260;28;20437;-72
2023/10/07 01:05:13;;;;;;;7.07;5.27;;;11.60;99.90;;;;;;5015218;28;20462;-72
2023/10/07 01:07:41;;;;;;;10.03;5.13;;;11.60;99.90;;;;;;4995529;28;20525;-72
2023/10/07 01:12:39;;;;;;;7.90;5.00;;;11.60;99.90;;;;;;4995803;28;20416;-72
2023/10/07 01:17:47;;;;;;;8.10;5.63;;;11.60;99.90;;;;;;5015027;28;20453;-72
2023/10/07 01:20:14;;;;;;;6.80;4.70;;;11.60;99.90;;;;;;5014918;28;20811;-72
2023/10/07 01:23:02;;;;;;;7.53;5.10;;;11.60;99.90;;;;;;5015175;28;20803;-72
2023/10/07 01:25:28;;;;;;;8.90;5.53;;;11.70;99.90;;;;;;5014569;28;20519;-72
2023/10/07 01:27:54;;;;;;;8.07;5.37;;;11.60;99.90;;;;;;5014889;28;20484;-72
2023/10/07 01:30:26;;;;;;;6.00;4.70;;;11.60;99.90;;;;;;5014760;28;20812;-72
2023/10/07 01:33:22;;;;;;;8.23;4.87;;;11.50;99.90;;;;;;5015004;28;20419;-72
2023/10/07 01:38:52;;;;;;;7.63;5.13;;;11.50;99.90;;;;;;5009588;28;20428;-71
2023/10/07 01:41:19;;;;;;;7.93;5.60;;;11.50;99.90;;;;;;5014582;28;20759;-72
2023/10/07 01:44:00;;;;;;;8.73;5.00;;;11.50;99.90;;;;;;5014714;28;20407;-73
2023/10/07 01:46:27;;;;;;;7.67;5.40;;;11.50;99.90;;;;;;5014455;28;20458;-72
2023/10/07 01:48:57;;;;;;;8.17;5.40;;;11.40;99.90;;;;;;5014674;28;20442;-72
2023/10/07 01:51:30;;;;;;;7.43;4.97;;;11.30;99.90;;;;;;5014872;28;20953;-73
2023/10/07 01:53:56;;;;;;;10.73;5.30;;;11.40;99.90;;;;;;5014738;28;20459;-72
2023/10/07 01:56:26;;;;;;;7.93;4.90;;;11.40;99.90;;;;;;5013921;28;20534;-72
2023/10/07 01:59:04;;;;;;;7.50;4.90;;;11.40;99.90;;;;;;5014097;28;20928;-72
2023/10/07 02:01:30;;;;;;;6.93;5.07;;;11.40;99.90;;;;;;5014558;28;20797;-72
2023/10/07 02:04:00;;;;;;;8.37;5.60;;;11.50;99.90;;;;;;5014153;28;20413;-72
2023/10/07 02:06:26;;;;;;;7.13;4.80;;;11.50;99.90;;;;;;5013965;28;20228;-72
2023/10/07 02:08:54;;;;;;;8.23;5.30;;;11.60;99.90;;;;;;5014393;28;20490;-71
2023/10/07 02:11:28;;;;;;;7.90;5.53;;;11.50;99.90;;;;;;5014671;28;20781;-72
2023/10/07 02:13:55;;;;;;;7.90;4.53;;;11.40;99.90;;;;;;5014438;28;20387;-72
2023/10/07 02:16:21;;;;;;;9.43;5.67;;;11.40;99.90;;;;;;5013866;28;20426;-71
2023/10/07 02:18:47;;;;;;;6.23;4.43;;;11.40;99.90;;;;;;5013855;28;20426;-69
2023/10/07 02:21:16;;;;;;;7.33;5.20;;;11.40;99.90;;;;;;5012608;28;20281;-72
2023/10/07 02:23:45;;;;;;;8.10;4.83;;;11.40;99.90;;;;;;5014084;28;20405;-71
2023/10/07 02:26:19;;;;;;;6.53;4.80;;;11.40;99.90;;;;;;5012304;28;20828;-72
2023/10/07 02:28:48;;;;;;;7.87;4.87;;;11.30;99.90;;;;;;5014109;28;20478;-72
2023/10/07 02:31:17;;;;;;;6.03;4.77;;;11.20;99.90;;;;;;5013751;28;20459;-72
2023/10/07 02:33:45;;;;;;;8.27;5.30;;;11.20;99.90;;;;;;5013860;28;20414;-72
2023/10/07 02:36:28;;;;;;;9.03;5.47;;;11.20;99.90;;;;;;5013506;28;20419;-72
2023/10/07 02:39:00;;;;;;;6.60;4.90;;;11.20;99.90;;;;;;5013767;28;20884;-72
2023/10/07 02:41:26;;;;;;;7.63;5.67;;;11.20;99.90;;;;;;5013723;28;20407;-72
2023/10/07 02:43:52;;;;;;;7.50;4.77;;;11.20;99.90;;;;;;5013440;28;20775;-72
2023/10/07 02:46:31;;;;;;;8.00;5.73;;;11.20;99.90;;;;;;5013457;28;20191;-71
2023/10/07 02:49:10;;;;;;;5.67;4.63;;;11.20;99.90;;;;;;5013821;28;20701;-72
2023/10/07 02:51:39;;;;;;;7.63;5.63;;;11.20;99.90;;;;;;5013796;28;20400;-72
2023/10/07 02:54:17;;;;;;;7.83;5.80;;;11.20;99.90;;;;;;5014096;28;20433;-72
2023/10/07 02:56:55;;;;;;;7.50;4.90;;;11.20;99.90;;;;;;5014480;28;20889;-72
2023/10/07 02:59:28;;;;;;;7.10;5.57;;;11.20;99.90;;;;;;5014033;28;20804;-72
2023/10/07 03:02:12;;;;;;;8.30;4.67;;;11.20;99.90;;;;;;5012737;28;20470;-72
2023/10/07 03:07:49;;;;;;;7.37;5.83;;;10.90;99.90;;;;;;5001161;28;20426;-72
2023/10/07 03:13:18;;;;;;;8.60;5.40;;;10.90;99.90;;;;;;5012345;28;20184;-72
2023/10/07 03:16:09;;;;;;;6.70;5.40;;;10.80;99.90;;;;;;5011720;28;20511;-71
2023/10/07 03:18:32;;;;;;;7.63;5.00;;;10.90;99.90;;;;;;5013061;28;20457;-72
2023/10/07 03:21:06;;;;;;;6.47;4.77;;;11.00;99.90;;;;;;5013066;28;20406;-72
2023/10/07 03:23:35;;;;;;;7.07;4.93;;;11.00;99.90;;;;;;5012001;28;20163;-72
2023/10/07 03:28:38;;;;;;;8.47;5.10;;;11.00;99.90;;;;;;5013259;28;20420;-72
2023/10/07 03:31:13;;;;;;;6.57;5.10;;;11.00;99.90;;;;;;5013022;28;20625;-72
2023/10/07 03:33:48;;;;;;;6.73;5.47;;;11.00;99.90;;;;;;5013012;28;20389;-72
2023/10/07 03:39:16;;;;;;;7.57;5.00;;;11.10;99.90;;;;;;5012991;28;20441;-71
2023/10/07 03:41:48;;;;;;;7.80;4.90;;;11.10;99.90;;;;;;5013495;28;20458;-72
2023/10/07 03:44:18;;;;;;;6.57;4.80;;;10.90;99.90;;;;;;5012443;28;20413;-72
2023/10/07 03:46:47;;;;;;;7.40;4.97;;;10.90;99.90;;;;;;5013386;28;20515;-72
2023/10/07 03:49:15;;;;;;;7.30;4.50;;;10.90;99.90;;;;;;5012915;28;20453;-71
2023/10/07 03:51:41;;;;;;;7.07;4.60;;;10.90;99.90;;;;;;5013101;28;20405;-72
2023/10/07 03:54:11;;;;;;;7.83;5.80;;;10.90;99.90;;;;;;5013031;28;20416;-72
2023/10/07 03:56:38;;;;;;;5.93;4.30;;;10.80;99.90;;;;;;5012929;28;20410;-71
2023/10/07 03:59:05;;;;;;;5.70;4.50;;;10.80;99.90;;;;;;5013447;28;20407;-72
2023/10/07 04:01:32;;;;;;;8.13;5.13;;;10.80;99.90;;;;;;5012398;28;20410;-72
2023/10/07 04:04:00;;;;;;;5.97;4.17;;;10.80;99.90;;;;;;5015626;28;20496;-72
2023/10/07 04:06:30;;;;;;;7.37;5.20;;;10.80;99.90;;;;;;5015983;28;20452;-72
2023/10/07 04:09:05;;;;;;;7.50;4.83;;;10.90;99.90;;;;;;5016822;28;20907;-72
2023/10/07 04:11:38;;;;;;;7.30;5.23;;;10.80;99.90;;;;;;5016505;28;20473;-72
2023/10/07 04:14:19;;;;;;;11.23;6.80;;;10.70;99.90;;;;;;5016119;28;20439;-73
2023/10/07 04:17:11;;;;;;;6.63;4.77;;;10.70;99.90;;;;;;5014835;28;20464;-72
2023/10/07 04:19:52;;;;;;;6.37;4.97;;;10.70;99.90;;;;;;5016678;28;20403;-72
2023/10/07 04:22:17;;;;;;;5.37;4.20;;;10.60;99.90;;;;;;5016307;28;20403;-72
2023/10/07 04:24:44;;;;;;;7.00;5.37;;;10.60;99.90;;;;;;5016058;28;20746;-72
2023/10/07 04:27:18;;;;;;;6.20;4.50;;;10.70;99.90;;;;;;5015756;28;20195;-72
2023/10/07 04:29:44;;;;;;;6.87;4.80;;;10.70;99.90;;;;;;5014594;28;20426;-71
2023/10/07 04:32:20;;;;;;;8.23;6.13;;;10.60;99.90;;;;;;5015814;28;20407;-71
2023/10/07 04:35:00;;;;;;;8.73;5.93;;;10.60;99.90;;;;;;5015785;28;20431;-70
2023/10/07 04:37:43;;;;;;;7.90;4.50;;;10.40;99.90;;;;;;5015670;28;20855;-70
2023/10/07 04:42:47;;;;;;;6.10;4.50;;;10.40;99.90;;;;;;5016319;28;20418;-71
2023/10/07 04:45:24;;;;;;;8.20;4.57;;;10.50;99.90;;;;;;5015788;28;20489;-70
2023/10/07 04:48:23;;;;;;;7.30;4.93;;;10.50;99.90;;;;;;5015232;28;20456;-71
2023/10/07 04:51:02;;;;;;;5.60;4.57;;;10.40;99.90;;;;;;5015344;28;20493;-71
2023/10/07 04:53:27;;;;;;;8.37;4.33;;;10.40;99.90;;;;;;5015651;28;20401;-71
2023/10/07 04:56:01;;;;;;;7.30;4.60;;;10.50;99.90;;;;;;5015075;28;20449;-71
2023/10/07 04:58:27;;;;;;;8.20;4.73;;;10.50;99.90;;;;;;5015884;28;20524;-71
2023/10/07 05:01:04;;;;;;;8.23;5.40;;;10.60;99.90;;;;;;5015375;28;20403;-71
2023/10/07 05:03:30;;;;;;;9.83;4.80;;;10.60;99.90;;;;;;5015687;28;20152;-71
2023/10/07 05:05:59;;;;;;;8.00;5.40;;;10.50;99.90;;;;;;5014767;28;20830;-71
2023/10/07 05:08:27;;;;;;;7.87;5.20;;;10.40;99.90;;;;;;5015204;28;20494;-72
2023/10/07 05:11:04;;;;;;;6.03;4.90;;;10.40;99.90;;;;;;5015691;28;20415;-71
2023/10/07 05:13:33;;;;;;;7.67;5.07;;;10.40;99.90;;;;;;5013250;28;20476;-70
2023/10/07 05:15:59;;;;;;;7.50;5.20;;;10.50;99.90;;;;;;5014278;28;20439;-70
2023/10/07 05:18:25;;;;;;;10.30;6.87;;;10.50;99.90;;;;;;5015452;28;20465;-71
2023/10/07 05:20:51;;;;;;;7.20;4.80;;;10.40;99.90;;;;;;5015399;28;20176;-70
2023/10/07 05:23:18;;;;;;;7.83;6.60;;;10.40;99.90;;;;;;5013716;28;20680;-71
2023/10/07 05:25:50;;;;;;;7.93;5.70;;;10.40;99.90;;;;;;5015079;28;20461;-72
2023/10/07 05:28:21;;;;;;;9.00;5.07;;;10.50;99.90;;;;;;5015152;28;20435;-72
2023/10/07 05:30:50;;;;;;;8.63;5.93;;;10.40;99.90;;;;;;5015006;28;20383;-72
2023/10/07 05:33:25;;;;;;;6.23;4.70;;;10.50;99.90;;;;;;5014952;28;20410;-70
2023/10/07 05:35:58;;;;;;;7.33;5.23;;;10.50;99.90;;;;;;5015153;28;20438;-71
2023/10/07 05:38:25;;;;;;;8.43;5.30;;;10.50;99.90;;;;;;5014805;28;20517;-72
2023/10/07 05:40:50;;;;;;;8.37;5.63;;;10.50;99.90;;;;;;5015213;28;20507;-71
2023/10/07 05:43:16;;;;;;;6.33;4.87;;;10.40;99.90;;;;;;5014636;28;20473;-71
2023/10/07 05:45:42;;;;;;;7.70;5.40;;;10.30;99.90;;;;;;5014471;28;20436;-71
2023/10/07 05:48:08;;;;;;;8.83;5.60;;;10.40;99.90;;;;;;5014361;28;20186;-71
2023/10/07 05:50:34;;;;;;;7.97;5.63;;;10.40;99.90;;;;;;5014753;28;20785;-71
2023/10/07 05:53:04;;;;;;;12.07;6.30;;;10.40;99.90;;;;;;5014473;28;20175;-71
2023/10/07 05:55:33;;;;;;;10.10;6.10;;;10.40;99.90;;;;;;5014051;28;20827;-72
2023/10/07 05:58:01;;;;;;;8.10;5.90;;;10.40;99.90;;;;;;5014138;28;20410;-71
2023/10/07 06:00:31;;;;;;;8.00;5.70;;;10.50;99.90;;;;;;5014291;28;20401;-71
2023/10/07 06:02:57;;;;;;;5.67;4.63;;;10.50;99.90;;;;;;5014358;28;20837;-71
2023/10/07 06:05:27;;;;;;;8.07;5.80;;;10.50;99.90;;;;;;5014092;28;20438;-72
2023/10/07 06:07:58;;;;;;;7.23;5.77;;;10.50;99.90;;;;;;5012541;28;20412;-71
2023/10/07 06:10:24;;;;;;;6.27;5.00;;;10.60;99.90;;;;;;5014374;28;20433;-71
2023/10/07 06:12:53;;;;;;;8.33;5.17;;;10.60;99.90;;;;;;5014199;28;20482;-70
2023/10/07 06:15:24;;;;;;;8.00;4.80;;;10.70;99.90;;;;;;5013934;28;20208;-71
2023/10/07 06:17:51;;;;;;;5.97;4.57;;;10.80;99.90;;;;;;5013839;28;21008;-71
2023/10/07 06:20:18;;;;;;;6.87;4.53;;;10.70;99.90;;;;;;5012453;28;20408;-71
2023/10/07 06:22:45;;;;;;;8.17;5.10;;;10.80;99.90;;;;;;5014075;28;20399;-71
2023/10/07 06:25:17;;;;;;;7.73;6.10;;;10.90;99.90;;;;;;5013317;28;20426;-71
2023/10/07 06:27:45;;;;;;;10.13;5.47;;;10.90;99.90;;;;;;5012323;28;20443;-71
2023/10/07 06:30:20;;;;;;;8.53;5.40;;;10.90;99.90;;;;;;5013605;28;20435;-71
2023/10/07 06:32:54;;;;;;;7.17;4.90;;;10.80;99.90;;;;;;5013539;28;20379;-71
2023/10/07 06:35:25;;;;;;;8.03;4.83;;;10.90;99.90;;;;;;5013546;28;20430;-71
2023/10/07 06:37:57;;;;;;;7.47;5.20;;;10.90;99.90;;;;;;5013341;28;20769;-71
2023/10/07 06:42:48;;;;;;;8.47;5.80;;;11.10;99.90;;;;;;5013269;28;20428;-72
2023/10/07 06:45:17;;;;;;;7.13;4.90;;;11.20;99.90;;;;;;5012007;28;20430;-72
2023/10/07 06:47:46;;;;;;;9.60;6.03;;;11.30;99.90;;;;;;5013262;28;20226;-72
2023/10/07 06:50:17;;;;;;;6.93;5.07;;;11.60;99.90;;;;;;5012100;28;20487;-72
2023/10/07 06:52:44;;;;;;;7.30;5.13;;;11.80;99.90;;;;;;5013341;28;20405;-72
2023/10/07 06:55:15;;;;;;;7.90;5.70;;;12.00;99.90;;;;;;5013254;28;20449;-72
2023/10/07 06:57:43;;;;;;;7.40;5.40;;;12.10;99.90;;;;;;5012138;28;20421;-70
2023/10/07 07:00:22;;;;;;;9.10;6.30;;;12.10;99.90;;;;;;5013430;28;21023;-71
2023/10/07 07:02:54;;;;;;;10.30;6.03;;;12.40;99.90;;;;;;5013879;28;20475;-73
2023/10/07 07:05:22;;;;;;;8.73;5.80;;;12.80;99.90;;;;;;5013535;28;20442;-72
2023/10/07 07:07:52;;;;;;;10.30;5.87;;;13.20;99.90;;;;;;5013265;28;20987;-71
2023/10/07 07:10:27;;;;;;;8.27;5.70;;;13.40;99.90;;;;;;5013577;28;20416;-72
2023/10/07 07:12:58;;;;;;;9.50;5.70;;;13.70;99.90;;;;;;5013681;28;20464;-71
2023/10/07 07:15:28;;;;;;;8.57;5.13;;;14.00;99.90;;;;;;5013555;28;20433;-72
2023/10/07 07:18:08;;;;;;;8.07;5.13;;;14.20;99.90;;;;;;5013201;28;20405;-72
2023/10/07 07:20:48;;;;;;;9.57;5.93;;;14.50;99.90;;;;;;5013521;28;20412;-72
2023/10/07 07:23:16;;;;;;;8.43;5.00;;;14.80;99.90;;;;;;5013147;28;20458;-72
2023/10/07 07:25:43;;;;;;;10.00;5.67;;;14.90;99.90;;;;;;5013401;28;20426;-73
2023/10/07 07:28:14;;;;;;;6.03;4.90;;;14.90;99.90;;;;;;5013532;28;20405;-72
2023/10/07 07:30:39;;;;;;;7.67;5.57;;;14.80;99.90;;;;;;5013890;28;20387;-72
2023/10/07 07:33:11;;;;;;;8.73;5.37;;;14.70;99.90;;;;;;5013130;28;20916;-72
2023/10/07 07:35:44;;;;;;;6.47;4.53;;;14.60;99.90;;;;;;5013195;28;20183;-72
2023/10/07 07:38:29;;;;;;;7.97;5.07;;;14.70;99.90;;;;;;5013623;28;20412;-71
2023/10/07 07:41:05;;;;;;;7.90;4.77;;;14.80;99.90;;;;;;5017285;28;20906;-71
2023/10/07 07:43:36;;;;;;;7.90;5.23;;;14.80;99.90;;;;;;5016961;28;20390;-72
2023/10/07 07:48:43;;;;;;;4.83;4.20;;;15.00;99.90;;;;;;5016825;28;20382;-71
2023/10/07 07:51:11;;;;;;;8.10;5.50;;;15.10;99.90;;;;;;5016945;28;20410;-70
2023/10/07 07:53:36;;;;;;;8.03;5.23;;;15.10;99.90;;;;;;5015443;28;20413;-71
2023/10/07 07:56:02;;;;;;;6.90;5.47;;;15.10;99.90;;;;;;5016925;28;20940;-73
2023/10/07 07:58:28;;;;;;;9.80;5.93;;;15.40;99.90;;;;;;5016643;28;20172;-73
2023/10/07 08:01:04;;;;;;;7.03;5.43;;;15.60;99.90;;;;;;5015890;28;20179;-71
2023/10/07 08:03:30;;;;;;;9.63;5.73;;;15.60;99.90;;;;;;5016361;28;20155;-72
2023/10/07 08:05:55;;;;;;;6.80;5.10;;;16.00;99.90;;;;;;5016342;28;20449;-72
2023/10/07 08:08:24;;;;;;;8.40;5.83;;;16.30;99.90;;;;;;5016339;28;20175;-72
2023/10/07 08:10:54;;;;;;;8.17;5.40;;;16.70;99.90;;;;;;5014944;28;20547;-71
2023/10/07 08:13:29;;;;;;;8.03;5.60;;;16.40;99.90;;;;;;5014993;28;20414;-72
2023/10/07 08:15:56;;;;;;;7.00;5.00;;;17.00;99.90;;;;;;5016188;28;20426;-72
2023/10/07 08:18:30;;;;;;;8.60;5.47;;;16.90;99.90;;;;;;5014668;28;20497;-72
2023/10/07 08:21:06;;;;;;;6.90;5.53;;;16.70;99.90;;;;;;5016246;28;20858;-72
2023/10/07 08:23:36;;;;;;;8.50;5.77;;;16.50;99.90;;;;;;5014480;28;20407;-71
2023/10/07 08:26:10;;;;;;;10.77;5.63;;;16.60;99.90;;;;;;5010097;28;20460;-72
2023/10/07 08:29:01;;;;;;;7.70;5.73;;;16.80;99.90;;;;;;5012003;28;20918;-72
2023/10/07 08:36:36;;;;;;;6.90;5.20;;;18.00;99.90;;;;;;5013934;28;20918;-70
2023/10/07 08:39:06;;;;;;;5.40;4.63;;;18.40;99.90;;;;;;5014754;28;20778;-71
2023/10/07 08:41:32;;;;;;;7.53;5.10;;;18.10;99.90;;;;;;5014022;28;20426;-71
2023/10/07 08:44:17;;;;;;;6.23;4.70;;;18.50;99.90;;;;;;5015017;28;20439;-72
2023/10/07 08:46:54;;;;;;;6.53;5.07;;;19.00;99.90;;;;;;5021245;28;20489;-70
2023/10/07 08:49:27;;;;;;;8.27;5.30;;;19.20;99.90;;;;;;5015778;28;20908;-71
2023/10/07 08:51:54;;;;;;;7.47;4.57;;;19.50;99.90;;;;;;5013949;28;20397;-71
2023/10/07 08:54:26;;;;;;;7.03;5.77;;;19.80;99.90;;;;;;5014121;28;20430;-71
2023/10/07 08:57:06;;;;;;;8.07;4.70;;;19.30;99.90;;;;;;5039398;23;20487;-69
2023/10/07 08:59:32;;;;;;;7.43;5.37;;;18.70;99.90;;;;;;5015116;28;20457;-72
2023/10/07 09:01:59;;;;;;;10.17;7.37;;;18.40;99.90;;;;;;5014210;28;20411;-73
2023/10/07 09:04:31;;;;;;;8.83;5.70;;;18.00;99.90;;;;;;5015735;28;20438;-72
2023/10/07 09:07:00;;;;;;;7.37;5.47;;;18.10;99.90;;;;;;5015587;28;20454;-72
2023/10/07 09:09:39;;;;;;;10.70;5.30;;;18.80;99.90;;;;;;5014956;28;20443;-72
2023/10/07 09:12:14;;;;;;;8.10;5.80;;;19.30;99.90;;;;;;5015005;28;20411;-70
2023/10/07 09:14:54;;;;;;;10.70;7.03;;;19.20;99.90;;;;;;5015150;28;20813;-71
2023/10/07 09:17:21;;;;;;;8.10;6.37;;;19.10;99.90;;;;;;5015190;28;20458;-71
2023/10/07 09:19:52;;;;;;;10.33;6.90;;;18.80;99.90;;;;;;5014689;28;20422;-73
2023/10/07 09:22:24;;;;;;;9.30;6.20;;;19.30;99.90;;;;;;5014653;28;20425;-70
2023/10/07 09:24:54;;;;;;;11.47;7.20;;;19.10;99.90;;;;;;5014996;28;20395;-71
2023/10/07 09:27:36;;;;;;;8.70;6.40;;;19.30;99.90;;;;;;5014495;28;21028;-71
2023/10/07 09:30:48;;;;;;;10.07;7.30;;;19.00;99.90;;;;;;5014381;28;20415;-72
2023/10/07 09:32:58;;;;;;;8.53;6.37;;;18.70;99.90;;;;;;5011131;28;20415;-70
2023/10/07 09:35:25;;;;;;;7.90;6.87;;;18.80;99.90;;;;;;5014674;28;21033;-70
2023/10/07 09:37:53;;;;;;;9.90;7.77;;;18.80;99.90;;;;;;5014566;28;20747;-69
2023/10/07 09:43:13;;;;;;;9.30;6.37;;;18.90;99.90;;;;;;5014298;28;20393;-71
2023/10/07 09:45:39;;;;;;;6.33;5.50;;;19.10;99.90;;;;;;5014800;28;20427;-71
2023/10/07 09:48:09;;;;;;;10.57;7.30;;;18.80;99.90;;;;;;5014282;28;20763;-71
2023/10/07 09:50:37;;;;;;;10.10;7.23;;;19.00;99.90;;;;;;5014230;28;20192;-72
2023/10/07 09:53:38;;;;;;;8.77;6.00;;;19.60;99.90;;;;;;5013642;28;20506;-70
2023/10/07 09:56:21;;;;;;;7.53;5.87;;;20.10;99.90;;;;;;5013471;28;20455;-70
2023/10/07 09:59:13;;;;;;;7.20;5.80;;;20.50;99.40;;;;;;5013950;28;20399;-71
2023/10/07 10:02:05;;;;;;;8.87;5.53;;;20.70;99.20;;;;;;5013946;28;20411;-71
2023/10/07 10:05:36;;;;;;;6.30;5.30;;;20.60;98.90;;;;;;5013417;28;20517;-71
2023/10/07 10:08:27;;;;;;;9.70;6.63;;;20.70;98.10;;;;;;4963522;28;20806;-70
2023/10/07 10:10:57;;;;;;;8.80;6.13;;;19.70;99.70;;;;;;4992830;28;20926;-71
2023/10/07 10:16:14;;;;;;;9.77;5.90;;;19.50;99.70;;;;;;4994611;28;20415;-71
2023/10/07 10:18:51;;;;;;;6.93;5.70;;;19.90;99.70;;;;;;4995965;28;20411;-71
2023/10/07 10:21:22;;;;;;;7.40;5.80;;;20.30;99.30;;;;;;5014089;28;20387;-71
2023/10/07 10:23:51;;;;;;;7.30;5.20;;;20.40;97.80;;;;;;5013833;28;20387;-71
2023/10/07 10:26:23;;;;;;;7.33;5.07;;;21.00;97.40;;;;;;5013381;28;20451;-70
2023/10/07 10:29:04;;;;;;;6.07;4.40;;;21.50;97.10;;;;;;5013202;28;20506;-70
2023/10/07 10:31:32;;;;;;;8.17;5.70;;;21.70;96.60;;;;;;5006844;28;20403;-71
2023/10/07 10:33:59;;;;;;;6.27;4.77;;;21.90;94.60;;;;;;5013482;28;20407;-72
2023/10/07 10:36:24;;;;;;;5.03;3.70;;;22.20;93.90;;;;;;5012651;28;20442;-71
2023/10/07 10:38:50;;;;;;;4.90;3.73;;;22.20;93.20;;;;;;5013521;28;20882;-71
2023/10/07 10:41:32;;;;;;;4.40;3.00;;;22.20;93.70;;;;;;5013203;28;20168;-70
2023/10/07 10:44:10;;;;;;;4.83;2.80;;;21.80;90.80;;;;;;5013260;28;20569;-72
2023/10/07 10:46:49;;;;;;;4.17;3.40;;;21.80;90.60;;;;;;5013228;28;20542;-71
2023/10/07 10:49:17;;;;;;;3.97;3.20;;;21.80;91.60;;;;;;5012953;28;20403;-71
2023/10/07 10:51:48;;;;;;;4.90;3.33;;;22.30;90.20;;;;;;5013035;28;20403;-71
2023/10/07 10:54:15;;;;;;;5.30;3.93;;;22.30;85.30;;;;;;5012915;28;20391;-71
2023/10/07 10:56:48;;;;;;;7.53;3.23;;;22.10;86.40;;;;;;5012709;28;20443;-70
2023/10/07 10:59:18;;;;;;;5.50;3.37;;;22.60;87.40;;;;;;5012476;28;20410;-71
2023/10/07 11:01:44;;;;;;;4.40;3.07;;;22.30;87.20;;;;;;5010720;28;20411;-71
2023/10/07 11:04:15;;;;;;;4.30;3.37;;;22.60;90.30;;;;;;5012796;28;20905;-71
2023/10/07 11:06:40;;;;;;;3.80;2.80;;;22.80;86.60;;;;;;5013091;28;20516;-71
2023/10/07 11:09:08;;;;;;;4.97;3.27;;;22.30;87.00;;;;;;5012754;28;20506;-71
2023/10/07 11:11:35;;;;;;;5.30;3.67;;;22.30;85.90;;;;;;5012857;28;20195;-71
2023/10/07 11:14:09;;;;;;;5.20;3.20;;;22.10;85.10;;;;;;5016456;28;20417;-70
2023/10/07 11:16:46;;;;;;;5.73;3.80;;;21.80;86.90;;;;;;5017125;28;20430;-71
2023/10/07 11:19:12;;;;;;;4.90;3.50;;;22.20;88.30;;;;;;5016911;28;20777;-71
2023/10/07 11:21:41;;;;;;;6.30;3.60;;;22.30;88.00;;;;;;5017339;28;20411;-72
2023/10/07 11:24:07;;;;;;;5.17;3.30;;;22.70;85.40;;;;;;5015513;28;20437;-71
2023/10/07 11:26:33;;;;;;;7.20;3.70;;;22.80;86.30;;;;;;5016973;28;20446;-72
2023/10/07 11:29:11;;;;;;;3.50;2.90;;;22.50;84.90;;;;;;5016512;28;20924;-71
2023/10/07 11:31:37;;;;;;;4.13;3.37;;;22.30;82.60;;;;;;5016791;28;20403;-72
2023/10/07 11:34:04;;;;;;;6.87;4.37;;;22.00;84.00;;;;;;5016933;28;20457;-72
2023/10/07 11:36:40;;;;;;;6.47;3.93;;;22.30;84.70;;;;;;5016833;28;20835;-72
2023/10/07 11:39:08;;;;;;;5.40;3.50;;;22.20;85.80;;;;;;5015372;28;20773;-71
2023/10/07 11:41:35;;;;;;;4.03;3.07;;;22.20;84.40;;;;;;5016202;28;20411;-71
2023/10/07 11:44:03;;;;;;;5.00;3.70;;;22.40;84.30;;;;;;5016425;28;20411;-71
2023/10/07 11:46:29;;;;;;;6.43;4.07;;;22.20;84.10;;;;;;5016126;28;20446;-71
2023/10/07 11:48:56;;;;;;;5.57;3.67;;;22.30;87.10;;;;;;5016536;28;20415;-71
2023/10/07 11:51:24;;;;;;;3.87;3.00;;;22.40;83.50;;;;;;5016323;28;20407;-72
2023/10/07 11:53:50;;;;;;;4.27;3.50;;;22.20;84.40;;;;;;5015458;28;20399;-69
2023/10/07 11:56:16;;;;;;;6.30;4.03;;;22.00;83.70;;;;;;5015512;28;20466;-71
2023/10/07 11:58:46;;;;;;;5.10;3.40;;;21.90;84.40;;;;;;5016334;28;20418;-72
2023/10/07 12:01:11;;;;;;;5.30;3.80;;;22.20;84.90;;;;;;5016104;28;20635;-72
2023/10/07 12:03:40;;;;;;;4.40;3.40;;;22.40;83.60;;;;;;5015686;28;20497;-72
2023/10/07 12:06:05;;;;;;;4.63;3.20;;;22.40;84.00;;;;;;5016043;28;20204;-70
2023/10/07 12:08:34;;;;;;;4.37;3.33;;;22.60;84.00;;;;;;5015911;28;20779;-71
2023/10/07 12:11:00;;;;;;;4.40;3.30;;;22.80;83.50;;;;;;5015723;28;20164;-71
2023/10/07 12:13:27;;;;;;;4.20;3.20;;;22.70;82.30;;;;;;5015884;28;20445;-71
2023/10/07 12:15:53;;;;;;;4.40;2.97;;;22.60;83.40;;;;;;5016129;28;20207;-70
2023/10/07 12:18:19;;;;;;;4.30;3.07;;;22.20;83.30;;;;;;5015995;28;20932;-69
2023/10/07 12:20:45;;;;;;;5.23;3.43;;;22.20;83.50;;;;;;5015606;28;20403;-70
2023/10/07 12:23:11;;;;;;;6.17;3.70;;;22.40;83.50;;;;;;5014908;28;20252;-71
2023/10/07 12:25:37;;;;;;;5.30;3.43;;;22.70;84.40;;;;;;5014907;28;20509;-71
2023/10/07 12:28:05;;;;;;;4.47;3.90;;;22.90;84.80;;;;;;4996087;28;20296;-70
2023/10/07 12:30:31;;;;;;;6.50;3.93;;;23.20;86.20;;;;;;5010596;28;20438;-72
2023/10/07 12:33:03;;;;;;;4.73;4.23;;;23.00;82.80;;;;;;5015036;28;20590;-73
2023/10/07 12:35:36;;;;;;;5.60;3.70;;;23.20;84.80;;;;;;5014242;28;20427;-71
2023/10/07 12:38:02;;;;;;;5.50;3.60;;;23.30;82.40;;;;;;5015826;28;20413;-72
2023/10/07 12:40:30;;;;;;;4.77;3.40;;;22.90;83.30;;;;;;5014329;28;20964;-70
2023/10/07 12:42:59;;;;;;;4.60;3.60;;;22.80;83.00;;;;;;5014935;28;20168;-72
2023/10/07 12:45:30;;;;;;;5.63;4.53;;;22.60;83.20;;;;;;5015606;28;20431;-72
2023/10/07 12:47:56;;;;;;;4.33;3.33;;;23.00;85.60;;;;;;5015629;28;20438;-71
2023/10/07 12:50:32;;;;;;;6.07;3.50;;;23.40;84.70;;;;;;5015172;28;20422;-71
2023/10/07 12:52:59;;;;;;;9.37;3.37;;;23.50;81.10;;;;;;5014129;28;20160;-72
2023/10/07 12:55:31;;;;;;;7.37;3.77;;;23.30;82.00;;;;;;5015064;28;20437;-72
2023/10/07 12:58:01;;;;;;;6.40;3.53;;;23.50;82.20;;;;;;5015377;28;20453;-72
2023/10/07 13:00:32;;;;;;;6.20;3.50;;;24.10;80.50;;;;;;5015324;28;20407;-72
2023/10/07 13:02:58;;;;;;;6.40;3.90;;;24.60;81.60;;;;;;5015848;28;20509;-72
2023/10/07 13:05:23;;;;;;;7.13;4.70;;;24.80;78.90;;;;;;5015265;28;20439;-73
2023/10/07 13:07:51;;;;;;;4.43;3.40;;;24.80;79.60;;;;;;5015263;28;20443;-70
2023/10/07 13:10:17;;;;;;;4.60;3.50;;;24.90;81.70;;;;;;5015512;28;20259;-71
2023/10/07 13:12:44;;;;;;;6.10;3.97;;;25.20;80.60;;;;;;5015423;28;20478;-71
2023/10/07 13:15:16;;;;;;;5.40;3.67;;;25.30;79.30;;;;;;5013756;28;20443;-72
2023/10/07 13:17:49;;;;;;;4.80;3.80;;;25.10;80.00;;;;;;5015198;28;20406;-71
2023/10/07 13:20:23;;;;;;;8.30;4.33;;;25.30;78.30;;;;;;5014597;28;20447;-71
2023/10/07 13:22:49;;;;;;;5.50;3.90;;;24.20;81.10;;;;;;5015055;28;20811;-70
2023/10/07 13:25:19;;;;;;;5.37;3.77;;;24.40;83.40;;;;;;5014926;28;20431;-71
2023/10/07 13:27:46;;;;;;;10.23;4.30;;;24.70;81.70;;;;;;5014183;28;20447;-71
2023/10/07 13:30:16;;;;;;;5.80;4.10;;;25.00;80.80;;;;;;5014598;28;20778;-71
2023/10/07 13:32:46;;;;;;;6.77;4.07;;;24.80;79.40;;;;;;5014430;28;20403;-71
2023/10/07 13:35:15;;;;;;;5.70;3.60;;;24.50;80.40;;;;;;5013949;28;20453;-71
2023/10/07 13:37:44;;;;;;;6.63;3.87;;;24.40;79.00;;;;;;5014703;28;20415;-71
2023/10/07 13:40:17;;;;;;;6.63;4.30;;;24.30;80.30;;;;;;5014211;28;20477;-71
2023/10/07 13:42:49;;;;;;;5.60;4.00;;;24.50;79.60;;;;;;5014566;28;20391;-71
2023/10/07 13:45:15;;;;;;;6.60;4.00;;;24.80;78.80;;;;;;5014280;28;20427;-70
2023/10/07 13:47:42;;;;;;;5.00;3.33;;;25.10;79.60;;;;;;5014140;28;20449;-71
2023/10/07 13:50:14;;;;;;;5.63;3.60;;;26.20;78.50;;;;;;5013829;28;20415;-71
2023/10/07 13:52:50;;;;;;;5.40;3.70;;;27.60;74.20;;;;;;5014523;28;20379;-71
2023/10/07 13:55:32;;;;;;;7.00;3.67;;;27.90;69.70;;;;;;5014224;28;20868;-71